createdAt,value
2023-04-16T00:00:56.266Z,87.90
2023-04-16T00:03:23.198Z,88.21
2023-04-16T00:05:49.933Z,88.02
2023-04-16T00:08:16.474Z,88.37
2023-04-16T00:10:43.013Z,89.02
2023-04-16T00:13:09.460Z,88.97
2023-04-16T00:15:36.052Z,88.60
2023-04-16T00:18:02.652Z,89.13
2023-04-16T00:20:29.092Z,89.50
2023-04-16T00:22:55.559Z,89.50
2023-04-16T00:25:22.125Z,89.34
2023-04-16T00:27:48.564Z,90.00
2023-04-16T00:30:15.019Z,90.02
2023-04-16T00:32:41.721Z,90.43
2023-04-16T00:35:08.790Z,90.52
2023-04-16T00:37:35.204Z,90.27
2023-04-16T00:40:01.851Z,90.23
2023-04-16T00:42:28.285Z,90.69
2023-04-16T00:44:54.901Z,90.18
2023-04-16T00:47:21.734Z,90.55
2023-04-16T00:49:48.513Z,90.68
2023-04-16T00:52:15.312Z,90.49
2023-04-16T00:54:41.994Z,90.76
2023-04-16T00:57:08.991Z,90.44
2023-04-16T00:59:39.206Z,90.55
2023-04-16T01:02:08.965Z,90.33
2023-04-16T01:04:35.976Z,89.78
2023-04-16T01:07:02.609Z,89.88
2023-04-16T01:09:28.973Z,89.74
2023-04-16T01:14:36.522Z,90.02
2023-04-16T01:17:04.235Z,90.07
2023-04-16T01:19:36.270Z,90.50
2023-04-16T01:22:03.975Z,90.34
2023-04-16T01:24:31.117Z,90.50
2023-04-16T01:26:59.540Z,90.86
2023-04-16T01:29:26.856Z,91.16
2023-04-16T01:31:54.293Z,90.95
2023-04-16T01:34:20.811Z,90.67
2023-04-16T01:39:27.860Z,91.01
2023-04-16T01:41:54.391Z,91.15
2023-04-16T01:44:22.152Z,91.35
2023-04-16T01:47:01.213Z,91.59
2023-04-16T01:49:27.644Z,91.19
2023-04-16T01:51:54.190Z,91.71
2023-04-16T01:54:20.728Z,91.61
2023-04-16T01:56:47.237Z,91.23
2023-04-16T02:02:12.984Z,91.35
2023-04-16T02:04:41.483Z,91.53
2023-04-16T02:07:08.695Z,90.95
2023-04-16T02:09:36.468Z,91.16
2023-04-16T02:12:03.337Z,90.92
2023-04-16T02:17:39.372Z,90.83
2023-04-16T02:20:08.272Z,91.14
2023-04-16T02:22:34.831Z,90.75
2023-04-16T02:25:01.567Z,91.52
2023-04-16T02:27:28.080Z,91.41
2023-04-16T02:29:54.727Z,91.68
2023-04-16T02:32:22.347Z,91.57
2023-04-16T02:34:48.769Z,91.81
2023-04-16T02:37:15.666Z,91.63
2023-04-16T02:39:42.954Z,91.82
2023-04-16T02:42:09.381Z,92.06
2023-04-16T02:44:35.810Z,91.90
2023-04-16T02:47:02.180Z,92.37
2023-04-16T02:49:28.684Z,91.97
2023-04-16T02:51:55.245Z,92.08
2023-04-16T02:54:21.608Z,92.47
2023-04-16T02:56:48.214Z,92.28
2023-04-16T02:59:14.792Z,92.24
2023-04-16T03:01:41.479Z,91.43
2023-04-16T03:04:07.940Z,91.65
2023-04-16T03:06:34.618Z,91.72
2023-04-16T03:09:01.247Z,91.69
2023-04-16T03:11:27.872Z,91.84
2023-04-16T03:13:55.560Z,91.34
2023-04-16T03:16:22.586Z,90.99
2023-04-16T03:18:49.653Z,90.81
2023-04-16T03:21:16.110Z,90.79
2023-04-16T03:23:42.648Z,90.74
2023-04-16T03:26:09.042Z,90.73
2023-04-16T03:28:35.585Z,90.67
2023-04-16T03:31:02.064Z,90.91
2023-04-16T03:33:28.576Z,90.93
2023-04-16T03:35:57.483Z,90.99
2023-04-16T03:38:26.076Z,90.77
2023-04-16T03:40:52.689Z,90.88
2023-04-16T03:43:28.841Z,91.23
2023-04-16T03:45:55.502Z,91.49
2023-04-16T03:48:22.119Z,91.18
2023-04-16T03:50:48.565Z,91.22
2023-04-16T03:53:15.496Z,91.71
2023-04-16T03:55:42.238Z,91.20
2023-04-16T03:58:08.808Z,91.61
2023-04-16T04:00:35.325Z,91.68
2023-04-16T04:03:01.814Z,91.88
2023-04-16T04:05:28.477Z,91.75
2023-04-16T04:07:55.020Z,91.81
2023-04-16T04:10:21.387Z,91.69
2023-04-16T04:12:47.858Z,91.76
2023-04-16T04:15:14.497Z,91.79
2023-04-16T04:17:40.979Z,91.46
2023-04-16T04:20:07.877Z,90.82
2023-04-16T04:22:34.426Z,91.33
2023-04-16T04:25:00.977Z,91.43
2023-04-16T04:27:30.409Z,91.69
2023-04-16T04:29:57.053Z,91.28
2023-04-16T04:32:23.533Z,91.08
2023-04-16T04:34:50.303Z,91.12
2023-04-16T04:37:16.829Z,91.73
2023-04-16T04:39:43.349Z,91.89
2023-04-16T04:42:09.779Z,91.45
2023-04-16T04:44:36.463Z,91.68
2023-04-16T04:47:02.891Z,91.87
2023-04-16T04:49:30.656Z,91.50
2023-04-16T04:51:57.176Z,91.96
2023-04-16T04:54:23.738Z,92.10
2023-04-16T04:56:52.622Z,91.96
2023-04-16T04:59:20.937Z,92.60
2023-04-16T05:01:47.496Z,93.02
2023-04-16T05:04:14.190Z,92.83
2023-04-16T05:06:40.716Z,92.95
2023-04-16T05:09:11.719Z,92.79
2023-04-16T05:11:39.259Z,93.13
2023-04-16T05:14:05.652Z,93.45
2023-04-16T05:16:54.473Z,92.62
2023-04-16T05:19:19.408Z,92.33
2023-04-16T05:21:46.135Z,92.46
2023-04-16T05:24:14.800Z,92.04
2023-04-16T05:26:41.773Z,91.63
2023-04-16T05:29:08.594Z,91.57
2023-04-16T05:31:35.671Z,91.07
2023-04-16T05:34:02.144Z,91.32
2023-04-16T05:36:28.843Z,91.42
2023-04-16T05:38:55.294Z,92.73
2023-04-16T05:41:21.972Z,91.86
2023-04-16T05:43:48.639Z,92.20
2023-04-16T05:46:15.321Z,92.37
2023-04-16T05:48:41.877Z,92.53
2023-04-16T05:51:08.235Z,92.59
2023-04-16T05:53:34.820Z,92.44
2023-04-16T05:56:01.251Z,91.95
2023-04-16T05:58:36.691Z,93.04
2023-04-16T06:01:03.688Z,92.52
2023-04-16T06:03:30.522Z,92.46
2023-04-16T06:05:59.406Z,92.80
2023-04-16T06:08:29.257Z,92.94
2023-04-16T06:10:56.785Z,93.55
2023-04-16T06:13:23.232Z,92.56
2023-04-16T06:16:02.122Z,93.60
2023-04-16T06:18:28.634Z,93.31
2023-04-16T06:20:59.977Z,93.28
2023-04-16T06:23:26.417Z,93.28
2023-04-16T06:25:53.092Z,93.38
2023-04-16T06:28:19.729Z,93.38
2023-04-16T06:30:57.744Z,93.03
2023-04-16T06:33:24.257Z,92.77
2023-04-16T06:35:50.815Z,92.28
2023-04-16T06:38:17.299Z,93.07
2023-04-16T06:40:43.808Z,92.64
2023-04-16T06:43:21.666Z,92.18
2023-04-16T06:45:48.448Z,92.32
2023-04-16T06:51:05.617Z,92.82
2023-04-16T06:53:32.177Z,93.06
2023-04-16T06:55:58.559Z,93.29
2023-04-16T06:58:25.038Z,92.79
2023-04-16T07:00:51.614Z,92.64
2023-04-16T07:03:18.340Z,92.77
2023-04-16T07:05:44.879Z,93.11
2023-04-16T07:08:11.590Z,93.41
2023-04-16T07:10:41.500Z,93.01
2023-04-16T07:13:08.561Z,93.09
2023-04-16T07:15:35.086Z,93.29
2023-04-16T07:18:01.557Z,93.27
2023-04-16T07:20:28.260Z,93.53
2023-04-16T07:22:54.960Z,93.45
2023-04-16T07:25:21.598Z,93.54
2023-04-16T07:27:48.045Z,93.09
2023-04-16T07:30:14.452Z,92.71
2023-04-16T07:32:40.868Z,92.22
2023-04-16T07:35:08.026Z,92.18
2023-04-16T07:37:34.468Z,92.04
2023-04-16T07:40:01.104Z,92.11
2023-04-16T07:42:28.277Z,91.91
2023-04-16T07:45:10.448Z,92.74
2023-04-16T07:47:37.073Z,92.83
2023-04-16T07:50:03.787Z,92.63
2023-04-16T07:52:35.587Z,92.74
2023-04-16T07:55:05.734Z,93.02
2023-04-16T07:57:32.531Z,92.23
2023-04-16T07:59:59.013Z,92.55
2023-04-16T08:02:26.542Z,93.10
2023-04-16T08:04:53.312Z,92.98
2023-04-16T08:07:29.371Z,92.62
2023-04-16T08:10:02.623Z,92.88
2023-04-16T08:12:29.628Z,93.02
2023-04-16T08:14:56.399Z,92.97
2023-04-16T08:17:22.870Z,92.40
2023-04-16T08:19:49.375Z,93.08
2023-04-16T08:22:16.138Z,92.72
2023-04-16T08:24:42.599Z,92.27
2023-04-16T08:27:18.511Z,92.41
2023-04-16T08:29:45.608Z,92.38
2023-04-16T08:32:12.305Z,92.15
2023-04-16T08:34:38.939Z,92.55
2023-04-16T08:37:08.051Z,92.14
2023-04-16T08:39:35.282Z,91.51
2023-04-16T08:42:04.986Z,91.79
2023-04-16T08:44:37.977Z,91.51
2023-04-16T08:47:09.567Z,90.98
2023-04-16T08:49:43.352Z,90.94
2023-04-16T08:52:15.328Z,90.60
2023-04-16T08:55:02.749Z,90.70
2023-04-16T08:57:40.942Z,90.96
2023-04-16T09:00:08.818Z,90.51
2023-04-16T09:02:36.550Z,90.41
2023-04-16T09:05:05.708Z,90.43
2023-04-16T09:07:33.397Z,90.21
2023-04-16T09:10:01.383Z,90.08
2023-04-16T09:12:27.795Z,90.00
2023-04-16T09:14:57.055Z,90.13
2023-04-16T09:17:23.733Z,90.34
2023-04-16T09:19:50.784Z,90.28
2023-04-16T09:22:17.284Z,89.89
2023-04-16T09:24:43.805Z,90.07
2023-04-16T09:27:26.465Z,89.82
2023-04-16T09:29:53.152Z,90.30
2023-04-16T09:32:25.948Z,90.14
2023-04-16T09:35:11.164Z,89.89
2023-04-16T09:37:37.661Z,89.73
2023-04-16T09:40:13.316Z,89.48
2023-04-16T09:42:39.782Z,88.90
2023-04-16T09:45:06.811Z,88.76
2023-04-16T09:47:44.194Z,88.18
2023-04-16T09:50:17.750Z,88.17
2023-04-16T09:52:53.087Z,88.21
2023-04-16T09:55:24.022Z,87.74
2023-04-16T09:57:59.141Z,88.11
2023-04-16T10:00:25.790Z,88.05
2023-04-16T10:03:06.715Z,87.80
2023-04-16T10:05:33.540Z,87.92
2023-04-16T10:08:06.951Z,87.87
2023-04-16T10:10:33.478Z,87.75
2023-04-16T10:13:00.742Z,87.81
2023-04-16T10:15:27.979Z,87.79
2023-04-16T10:17:55.174Z,87.56
2023-04-16T10:20:24.136Z,87.63
2023-04-16T10:22:50.858Z,87.34
2023-04-16T10:28:05.781Z,87.27
2023-04-16T10:30:32.622Z,87.14
2023-04-16T10:33:00.766Z,87.04
2023-04-16T10:35:27.267Z,86.73
2023-04-16T10:37:58.123Z,86.96
2023-04-16T10:40:26.657Z,86.96
2023-04-16T10:43:01.686Z,86.55
2023-04-16T10:45:38.415Z,86.56
2023-04-16T10:48:09.405Z,86.06
2023-04-16T10:50:37.120Z,85.90
2023-04-16T10:53:18.729Z,85.92
2023-04-16T10:56:04.528Z,85.86
2023-04-16T10:58:32.274Z,85.72
2023-04-16T11:01:06.845Z,85.96
2023-04-16T11:03:33.906Z,86.07
2023-04-16T11:06:16.553Z,86.08
2023-04-16T11:11:16.145Z,85.54
2023-04-16T11:13:50.221Z,85.21
2023-04-16T11:16:31.889Z,85.20
2023-04-16T11:18:58.391Z,85.21
2023-04-16T11:21:25.429Z,84.88
2023-04-16T11:23:53.373Z,84.79
2023-04-16T11:26:31.046Z,84.09
2023-04-16T11:28:57.839Z,84.52
2023-04-16T11:31:24.415Z,84.45
2023-04-16T11:33:51.055Z,84.43
2023-04-16T11:36:19.562Z,84.26
2023-04-16T11:39:09.773Z,84.27
2023-04-16T11:41:47.646Z,83.78
2023-04-16T11:44:25.592Z,83.73
2023-04-16T11:46:53.335Z,83.78
2023-04-16T11:49:29.977Z,83.67
2023-04-16T11:51:57.263Z,83.63
2023-04-16T11:54:24.903Z,83.73
2023-04-16T11:56:53.260Z,83.47
2023-04-16T11:59:24.031Z,83.33
2023-04-16T12:01:52.510Z,83.41
2023-04-16T12:04:22.812Z,83.70
2023-04-16T12:07:14.714Z,83.52
2023-04-16T12:12:32.102Z,83.19
2023-04-16T12:15:04.154Z,83.20
2023-04-16T12:17:36.154Z,83.03
2023-04-16T12:20:08.479Z,83.22
2023-04-16T12:22:39.850Z,83.27
2023-04-16T12:25:12.612Z,82.91
2023-04-16T12:27:53.962Z,82.85
2023-04-16T12:30:22.866Z,82.63
2023-04-16T12:32:51.564Z,82.83
2023-04-16T12:35:31.974Z,82.36
2023-04-16T12:37:59.187Z,82.50
2023-04-16T12:40:26.196Z,82.42
2023-04-16T12:42:52.568Z,82.23
2023-04-16T12:45:19.137Z,82.37
2023-04-16T12:47:46.328Z,82.35
2023-04-16T12:50:16.010Z,82.12
2023-04-16T12:52:42.532Z,82.01
2023-04-16T12:55:09.726Z,81.99
2023-04-16T12:57:36.174Z,81.63
2023-04-16T13:00:04.460Z,81.90
2023-04-16T13:02:41.172Z,81.98
2023-04-16T13:05:16.804Z,81.35
2023-04-16T13:07:52.343Z,81.35
2023-04-16T13:10:21.766Z,81.04
2023-04-16T13:12:48.977Z,80.51
2023-04-16T13:15:16.066Z,81.04
2023-04-16T13:17:42.523Z,81.07
2023-04-16T13:20:09.582Z,81.00
2023-04-16T13:22:36.229Z,80.81
2023-04-16T13:25:02.834Z,81.00
2023-04-16T13:27:30.392Z,80.94
2023-04-16T13:29:56.736Z,80.90
2023-04-16T13:32:23.516Z,80.62
2023-04-16T13:34:50.115Z,80.73
2023-04-16T13:37:16.987Z,80.19
2023-04-16T13:39:43.664Z,80.13
2023-04-16T13:42:10.238Z,80.60
2023-04-16T13:44:36.651Z,80.47
2023-04-16T13:47:12.003Z,80.34
2023-04-16T13:49:41.227Z,80.42
2023-04-16T13:52:07.791Z,80.01
2023-04-16T13:54:34.310Z,79.87
2023-04-16T13:57:00.929Z,80.06
2023-04-16T13:59:27.411Z,79.93
2023-04-16T14:01:54.068Z,79.71
2023-04-16T14:04:22.303Z,79.37
2023-04-16T14:06:49.647Z,79.07
2023-04-16T14:09:16.136Z,78.69
2023-04-16T14:11:42.611Z,79.14
2023-04-16T14:14:09.196Z,78.64
2023-04-16T14:16:35.847Z,79.31
2023-04-16T14:19:02.459Z,79.15
2023-04-16T14:21:29.420Z,78.92
2023-04-16T14:23:56.116Z,78.62
2023-04-16T14:26:31.478Z,78.59
2023-04-16T14:29:03.701Z,78.40
2023-04-16T14:31:30.744Z,77.95
2023-04-16T14:33:57.235Z,77.76
2023-04-16T14:36:23.764Z,77.65
2023-04-16T14:38:50.286Z,77.72
2023-04-16T14:41:16.796Z,77.10
2023-04-16T14:43:44.358Z,77.54
2023-04-16T14:46:11.436Z,77.38
2023-04-16T14:48:37.995Z,77.53
2023-04-16T14:51:04.849Z,77.72
2023-04-16T14:53:31.850Z,77.97
2023-04-16T14:55:59.007Z,77.45
2023-04-16T14:58:26.111Z,77.33
2023-04-16T15:03:33.396Z,76.78
2023-04-16T15:06:00.343Z,76.71
2023-04-16T15:08:27.164Z,76.50
2023-04-16T15:10:53.597Z,76.97
2023-04-16T15:13:20.214Z,76.70
2023-04-16T15:15:47.543Z,76.37
2023-04-16T15:18:14.227Z,76.50
2023-04-16T15:20:41.193Z,76.73
2023-04-16T15:23:07.740Z,76.23
2023-04-16T15:25:37.244Z,75.53
2023-04-16T15:28:03.866Z,75.79
2023-04-16T15:30:31.614Z,76.14
2023-04-16T15:32:58.154Z,75.83
2023-04-16T15:35:24.912Z,75.59
2023-04-16T15:37:52.751Z,75.56
2023-04-16T15:40:20.629Z,75.98
2023-04-16T15:42:47.362Z,75.87
2023-04-16T15:50:33.656Z,76.27
2023-04-16T15:53:06.776Z,76.59
2023-04-16T15:55:36.285Z,75.93
2023-04-16T15:58:03.251Z,76.23
2023-04-16T16:00:36.084Z,75.98
2023-04-16T16:03:14.049Z,76.48
2023-04-16T16:05:51.009Z,75.84
2023-04-16T16:08:17.544Z,76.06
2023-04-16T16:10:43.955Z,75.97
2023-04-16T16:13:13.185Z,76.07
2023-04-16T16:15:41.457Z,76.15
2023-04-16T16:18:08.161Z,76.91
2023-04-16T16:20:35.253Z,77.05
2023-04-16T16:23:02.099Z,76.74
2023-04-16T16:25:30.230Z,76.93
2023-04-16T16:27:56.882Z,76.80
2023-04-16T16:30:23.306Z,76.83
2023-04-16T16:32:50.852Z,77.39
2023-04-16T16:35:17.465Z,77.69
2023-04-16T16:37:44.311Z,77.55
2023-04-16T16:40:11.278Z,77.82
2023-04-16T16:42:37.796Z,77.90
2023-04-16T16:45:06.077Z,77.40
2023-04-16T16:47:33.347Z,77.75
2023-04-16T16:50:02.182Z,77.48
2023-04-16T16:52:29.599Z,77.42
2023-04-16T16:54:56.779Z,77.71
2023-04-16T16:57:24.392Z,77.81
2023-04-16T16:59:51.215Z,77.64
2023-04-16T17:02:18.630Z,78.41
2023-04-16T17:04:54.926Z,78.61
2023-04-16T17:07:29.904Z,79.13
2023-04-16T17:10:05.230Z,79.33
2023-04-16T17:12:33.144Z,79.43
2023-04-16T17:15:22.386Z,79.90
2023-04-16T17:17:47.072Z,79.35
2023-04-16T17:20:14.586Z,79.46
2023-04-16T17:22:42.150Z,79.41
2023-04-16T17:25:08.922Z,79.71
2023-04-16T17:27:35.470Z,79.45
2023-04-16T17:30:03.307Z,79.62
2023-04-16T17:32:30.259Z,79.18
2023-04-16T17:34:56.769Z,80.15
2023-04-16T17:37:23.415Z,80.31
2023-04-16T17:39:50.433Z,81.24
2023-04-16T17:42:20.215Z,81.60
2023-04-16T17:44:47.179Z,81.90
2023-04-16T17:47:13.729Z,82.08
2023-04-16T17:49:40.426Z,82.45
2023-04-16T17:52:07.476Z,82.89
2023-04-16T17:54:43.150Z,82.95
2023-04-16T17:57:09.839Z,82.67
2023-04-16T17:59:36.505Z,82.94
2023-04-16T18:02:03.432Z,82.58
2023-04-16T18:04:30.410Z,82.87
2023-04-16T18:06:57.369Z,83.21
2023-04-16T18:09:23.765Z,83.58
2023-04-16T18:11:50.838Z,83.39
2023-04-16T18:14:20.160Z,83.35
2023-04-16T18:16:49.997Z,83.64
2023-04-16T18:19:16.715Z,82.61
2023-04-16T18:21:43.369Z,82.51
2023-04-16T18:24:10.394Z,83.17
2023-04-16T18:26:37.547Z,83.68
2023-04-16T18:29:04.349Z,83.78
2023-04-16T18:31:30.958Z,83.68
2023-04-16T18:33:58.550Z,83.64
2023-04-16T18:36:27.000Z,83.92
2023-04-16T18:39:01.480Z,83.47
2023-04-16T18:41:29.162Z,84.32
2023-04-16T18:43:55.793Z,84.00
2023-04-16T18:46:22.286Z,84.12
2023-04-16T18:48:49.073Z,84.55
2023-04-16T18:51:16.695Z,84.19
2023-04-16T18:53:47.739Z,84.35
2023-04-16T18:56:14.146Z,84.69
2023-04-16T18:58:40.623Z,84.42
2023-04-16T19:01:11.310Z,83.92
2023-04-16T19:03:44.002Z,84.88
2023-04-16T19:06:16.498Z,85.31
2023-04-16T19:08:43.035Z,85.45
2023-04-16T19:11:09.719Z,85.21
2023-04-16T19:13:47.653Z,85.08
2023-04-16T19:16:14.322Z,85.34
2023-04-16T19:18:40.741Z,85.88
2023-04-16T19:21:07.512Z,85.09
2023-04-16T19:23:34.006Z,85.07
2023-04-16T19:26:01.773Z,85.17
2023-04-16T19:28:28.474Z,85.26
2023-04-16T19:30:55.174Z,84.55
2023-04-16T19:33:30.095Z,84.88
2023-04-16T19:35:56.962Z,84.77
2023-04-16T19:38:26.415Z,84.82
2023-04-16T19:40:52.900Z,84.69
2023-04-16T19:43:19.575Z,83.61
2023-04-16T19:45:57.669Z,84.08
2023-04-16T19:48:24.631Z,84.32
2023-04-16T19:50:51.476Z,84.49
2023-04-16T19:53:17.896Z,84.54
2023-04-16T19:55:44.425Z,84.70
2023-04-16T19:58:11.039Z,85.35
2023-04-16T20:00:38.824Z,85.54
2023-04-16T20:03:05.953Z,85.97
2023-04-16T20:05:32.828Z,85.97
2023-04-16T20:07:59.540Z,86.09
2023-04-16T20:10:26.564Z,86.70
2023-04-16T20:12:53.359Z,86.09
2023-04-16T20:15:42.682Z,86.52
2023-04-16T20:18:08.995Z,86.85
2023-04-16T20:20:38.162Z,87.04
2023-04-16T20:23:05.221Z,87.42
2023-04-16T20:25:31.713Z,87.28
2023-04-16T20:27:59.266Z,87.54
2023-04-16T20:30:29.257Z,87.06
2023-04-16T20:32:56.500Z,87.10
2023-04-16T20:35:23.127Z,86.63
2023-04-16T20:37:49.663Z,86.39
2023-04-16T20:40:24.030Z,85.91
2023-04-16T20:42:52.071Z,86.37
2023-04-16T20:45:18.679Z,86.13
2023-04-16T20:47:45.180Z,87.14
2023-04-16T20:50:12.297Z,87.43
2023-04-16T20:52:38.733Z,87.77
2023-04-16T20:55:05.793Z,88.56
2023-04-16T20:57:32.237Z,88.10
2023-04-16T20:59:58.844Z,88.48
2023-04-16T21:02:26.007Z,88.83
2023-04-16T21:04:52.595Z,88.65
2023-04-16T21:07:19.214Z,88.03
2023-04-16T21:09:46.003Z,88.00
2023-04-16T21:12:12.577Z,88.31
2023-04-16T21:14:39.134Z,88.82
2023-04-16T21:17:05.744Z,89.45
2023-04-16T21:19:32.357Z,89.53
2023-04-16T21:21:58.733Z,89.57
2023-04-16T21:24:25.481Z,90.30
2023-04-16T21:26:52.221Z,89.58
2023-04-16T21:29:18.679Z,89.50
2023-04-16T21:31:45.420Z,89.92
2023-04-16T21:34:11.911Z,89.06
2023-04-16T21:36:38.356Z,88.78
2023-04-16T21:41:45.199Z,89.29
2023-04-16T21:44:11.680Z,89.07
2023-04-16T21:46:38.099Z,89.21
2023-04-16T21:49:04.926Z,89.64
2023-04-16T21:51:31.552Z,89.38
2023-04-16T21:53:58.484Z,89.25
2023-04-16T21:56:25.841Z,89.33
2023-04-16T21:58:52.610Z,89.14
2023-04-16T22:01:19.150Z,89.04
2023-04-16T22:03:52.759Z,89.14
2023-04-16T22:06:20.751Z,88.79
2023-04-16T22:08:50.285Z,89.34
2023-04-16T22:11:16.700Z,89.60
2023-04-16T22:13:43.115Z,89.30
2023-04-16T22:16:11.777Z,89.44
2023-04-16T22:18:38.774Z,89.96
2023-04-16T22:21:05.208Z,89.88
2023-04-16T22:23:33.604Z,89.30
2023-04-16T22:26:00.163Z,89.59
2023-04-16T22:28:27.187Z,89.56
2023-04-16T22:30:53.838Z,89.94
2023-04-16T22:33:20.497Z,90.37
2023-04-16T22:35:47.078Z,90.77
2023-04-16T22:38:13.514Z,90.60
2023-04-16T22:40:39.918Z,91.12
2023-04-16T22:43:06.352Z,91.04
2023-04-16T22:45:46.524Z,91.72
2023-04-16T22:48:13.491Z,91.11
2023-04-16T22:50:40.887Z,91.34
2023-04-16T22:53:07.522Z,91.31
2023-04-16T22:55:33.875Z,91.53
2023-04-16T22:58:00.464Z,91.33
2023-04-16T23:00:27.364Z,91.38
2023-04-16T23:02:54.111Z,91.43
2023-04-16T23:05:20.794Z,91.91
2023-04-16T23:07:47.343Z,91.10
2023-04-16T23:10:13.809Z,91.63
2023-04-16T23:12:40.567Z,91.53
2023-04-16T23:15:07.349Z,90.81
2023-04-16T23:17:35.183Z,90.68
2023-04-16T23:20:02.072Z,90.79
2023-04-16T23:22:28.605Z,90.36
2023-04-16T23:24:58.126Z,91.25
2023-04-16T23:27:24.651Z,91.17
2023-04-16T23:29:51.296Z,91.35
2023-04-16T23:32:17.781Z,90.92
2023-04-16T23:34:44.964Z,90.96
2023-04-16T23:37:11.782Z,91.37
2023-04-16T23:39:38.371Z,91.10
2023-04-16T23:42:04.823Z,91.30
2023-04-16T23:44:31.327Z,91.46
2023-04-16T23:47:01.001Z,91.72
2023-04-16T23:49:27.432Z,91.72
2023-04-16T23:51:54.043Z,91.68
2023-04-16T23:54:21.362Z,91.31
2023-04-16T23:56:47.890Z,91.54
2023-04-16T23:59:14.563Z,91.78
